Details for Air Canada Jazz at CYHZ




Go Back


Latest METAR
Local Time

CYHZ 241300Z 29016KT 4SM BR OVC005 03/03 A2979 RMK ST8 CIG VRB 3-7 SLP095

24/02/2018, 10:00:00

Description
Results
Air Canada Jazz Logo
Number of Pilots based at CYHZ
0 Pilots Based here
Number of Air Canada Jazz Flights Departed from CYHZ
2 Flights Departed
Number of Air Canada Jazz Flights Arrived at CYHZ
1 Flights Arrived
Number of Air Canada Jazz Schedules Departing from CYHZ
30 Schedules
Number of Air Canada Jazz Schedules Arriving at CYHZ
25 Schedules
Number of Air Canada Jazz Schedules Departing from CYHZ availible today
23 Schedules Today
Number of Air Canada Jazz Schedules Arriving at CYHZ availible today
21 Schedules Today
Average Landing Rate at CYHZ
-129 fpm
Air Canada Jazz Average Landing Rate at CYHZ
-47 fpm
Total Fuel Purchased at CYHZ by Air Canada Jazz
2,865.80 kgs / 6,317.94 lbs

Pilots Based at CYHZ


Pilot ID
Pilot Name
Pilot Rank
No. of Flights
No. of Flying Hours
There are no pilots assigned to this hub!   Will you be the first?
Content